sensor_id;sensor_type;location;lat;lon;timestamp;pressure;altitude;pressure_sealevel;temperature
76901;BMP280;65859;43.020;25.096;2024-01-25T00:01:43;99532.63;;;2.01
76901;BMP280;65859;43.020;25.096;2024-01-25T00:04:28;99532.50;;;2.17
76901;BMP280;65859;43.020;25.096;2024-01-25T00:07:13;99520.50;;;2.32
76901;BMP280;65859;43.020;25.096;2024-01-25T00:09:58;99517.09;;;2.21
76901;BMP280;65859;43.020;25.096;2024-01-25T00:12:42;99524.84;;;1.68
76901;BMP280;65859;43.020;25.096;2024-01-25T00:15:27;99525.06;;;1.99
76901;BMP280;65859;43.020;25.096;2024-01-25T00:18:14;99507.63;;;1.40
76901;BMP280;65859;43.020;25.096;2024-01-25T00:20:58;99523.63;;;1.81
76901;BMP280;65859;43.020;25.096;2024-01-25T00:23:43;99520.69;;;2.15
76901;BMP280;65859;43.020;25.096;2024-01-25T00:26:28;99522.28;;;2.16
76901;BMP280;65859;43.020;25.096;2024-01-25T00:29:13;99522.31;;;2.21
76901;BMP280;65859;43.020;25.096;2024-01-25T00:31:58;99523.31;;;2.15
76901;BMP280;65859;43.020;25.096;2024-01-25T00:34:43;99531.66;;;2.07
76901;BMP280;65859;43.020;25.096;2024-01-25T00:37:28;99522.00;;;2.12
76901;BMP280;65859;43.020;25.096;2024-01-25T00:40:13;99522.63;;;1.55
76901;BMP280;65859;43.020;25.096;2024-01-25T00:42:59;99516.69;;;1.65
76901;BMP280;65859;43.020;25.096;2024-01-25T00:45:43;99522.34;;;1.89
76901;BMP280;65859;43.020;25.096;2024-01-25T00:48:30;99525.75;;;1.89
76901;BMP280;65859;43.020;25.096;2024-01-25T00:51:20;99527.97;;;2.03
76901;BMP280;65859;43.020;25.096;2024-01-25T00:54:05;99528.88;;;1.81
76901;BMP280;65859;43.020;25.096;2024-01-25T00:56:50;99519.72;;;1.84
76901;BMP280;65859;43.020;25.096;2024-01-25T00:59:37;99523.94;;;1.85
76901;BMP280;65859;43.020;25.096;2024-01-25T01:02:22;99515.59;;;1.98
76901;BMP280;65859;43.020;25.096;2024-01-25T01:05:08;99516.34;;;1.88
76901;BMP280;65859;43.020;25.096;2024-01-25T01:07:53;99525.38;;;1.70
76901;BMP280;65859;43.020;25.096;2024-01-25T01:10:38;99509.78;;;1.49
76901;BMP280;65859;43.020;25.096;2024-01-25T01:13:22;99504.84;;;1.25
76901;BMP280;65859;43.020;25.096;2024-01-25T01:16:07;99491.06;;;1.30
76901;BMP280;65859;43.020;25.096;2024-01-25T01:18:53;99488.16;;;1.26
76901;BMP280;65859;43.020;25.096;2024-01-25T01:21:38;99491.88;;;1.35
76901;BMP280;65859;43.020;25.096;2024-01-25T01:24:26;99500.88;;;1.82
76901;BMP280;65859;43.020;25.096;2024-01-25T01:27:11;99491.56;;;1.59
76901;BMP280;65859;43.020;25.096;2024-01-25T01:29:55;99446.47;;;1.46
76901;BMP280;65859;43.020;25.096;2024-01-25T01:32:40;99470.56;;;1.16
76901;BMP280;65859;43.020;25.096;2024-01-25T01:35:25;99486.38;;;1.32
76901;BMP280;65859;43.020;25.096;2024-01-25T01:38:10;99469.06;;;1.58
76901;BMP280;65859;43.020;25.096;2024-01-25T01:40:54;99457.19;;;1.45
76901;BMP280;65859;43.020;25.096;2024-01-25T01:43:39;99457.03;;;1.62
76901;BMP280;65859;43.020;25.096;2024-01-25T01:46:39;99446.72;;;1.77
76901;BMP280;65859;43.020;25.096;2024-01-25T01:49:27;99421.13;;;1.84
76901;BMP280;65859;43.020;25.096;2024-01-25T01:52:11;99421.50;;;1.24
76901;BMP280;65859;43.020;25.096;2024-01-25T01:54:56;99425.19;;;1.65
76901;BMP280;65859;43.020;25.096;2024-01-25T01:57:42;99435.59;;;1.60
76901;BMP280;65859;43.020;25.096;2024-01-25T02:00:30;99437.88;;;1.88
76901;BMP280;65859;43.020;25.096;2024-01-25T02:03:15;99423.13;;;1.72
76901;BMP280;65859;43.020;25.096;2024-01-25T02:06:01;99427.94;;;1.85
76901;BMP280;65859;43.020;25.096;2024-01-25T02:08:48;99420.59;;;1.87
76901;BMP280;65859;43.020;25.096;2024-01-25T02:11:34;99432.78;;;2.19
76901;BMP280;65859;43.020;25.096;2024-01-25T02:14:18;99403.06;;;1.83
76901;BMP280;65859;43.020;25.096;2024-01-25T02:17:03;99411.72;;;1.93
76901;BMP280;65859;43.020;25.096;2024-01-25T02:19:49;99410.47;;;1.54
76901;BMP280;65859;43.020;25.096;2024-01-25T02:22:34;99423.41;;;1.76
76901;BMP280;65859;43.020;25.096;2024-01-25T02:25:18;99422.25;;;1.56
76901;BMP280;65859;43.020;25.096;2024-01-25T02:28:03;99412.06;;;1.55
76901;BMP280;65859;43.020;25.096;2024-01-25T02:30:48;99424.56;;;1.53
76901;BMP280;65859;43.020;25.096;2024-01-25T02:33:33;99418.31;;;1.54
76901;BMP280;65859;43.020;25.096;2024-01-25T02:36:18;99416.13;;;1.40
76901;BMP280;65859;43.020;25.096;2024-01-25T02:39:02;99410.84;;;1.30
76901;BMP280;65859;43.020;25.096;2024-01-25T02:41:49;99429.19;;;1.40
76901;BMP280;65859;43.020;25.096;2024-01-25T02:44:34;99407.44;;;1.72
76901;BMP280;65859;43.020;25.096;2024-01-25T02:47:18;99410.59;;;1.74
76901;BMP280;65859;43.020;25.096;2024-01-25T02:50:05;99408.50;;;1.76
76901;BMP280;65859;43.020;25.096;2024-01-25T02:52:50;99396.59;;;2.06
76901;BMP280;65859;43.020;25.096;2024-01-25T02:55:35;99385.75;;;2.44
76901;BMP280;65859;43.020;25.096;2024-01-25T02:58:19;99394.16;;;2.72
76901;BMP280;65859;43.020;25.096;2024-01-25T03:01:04;99380.03;;;2.83
76901;BMP280;65859;43.020;25.096;2024-01-25T03:03:50;99370.34;;;2.94
76901;BMP280;65859;43.020;25.096;2024-01-25T03:06:34;99358.13;;;3.75
76901;BMP280;65859;43.020;25.096;2024-01-25T03:09:19;99375.66;;;4.34
76901;BMP280;65859;43.020;25.096;2024-01-25T03:12:05;99387.75;;;3.80
76901;BMP280;65859;43.020;25.096;2024-01-25T03:14:50;99373.06;;;3.74
76901;BMP280;65859;43.020;25.096;2024-01-25T03:17:35;99378.88;;;3.61
76901;BMP280;65859;43.020;25.096;2024-01-25T03:20:22;99380.50;;;4.16
76901;BMP280;65859;43.020;25.096;2024-01-25T03:23:06;99370.28;;;4.54
76901;BMP280;65859;43.020;25.096;2024-01-25T03:25:51;99372.38;;;5.15
76901;BMP280;65859;43.020;25.096;2024-01-25T03:28:36;99369.03;;;5.34
76901;BMP280;65859;43.020;25.096;2024-01-25T03:31:23;99365.31;;;4.82
76901;BMP280;65859;43.020;25.096;2024-01-25T03:34:07;99367.91;;;5.64
76901;BMP280;65859;43.020;25.096;2024-01-25T03:36:52;99360.22;;;5.67
76901;BMP280;65859;43.020;25.096;2024-01-25T03:39:38;99366.34;;;6.38
76901;BMP280;65859;43.020;25.096;2024-01-25T03:42:23;99357.50;;;7.77
76901;BMP280;65859;43.020;25.096;2024-01-25T03:45:08;99363.06;;;8.34
76901;BMP280;65859;43.020;25.096;2024-01-25T03:47:53;99350.25;;;8.05
76901;BMP280;65859;43.020;25.096;2024-01-25T03:50:39;99373.88;;;8.24
76901;BMP280;65859;43.020;25.096;2024-01-25T03:53:24;99367.38;;;8.07
76901;BMP280;65859;43.020;25.096;2024-01-25T03:56:12;99382.19;;;7.95
76901;BMP280;65859;43.020;25.096;2024-01-25T03:59:03;99375.13;;;8.26
76901;BMP280;65859;43.020;25.096;2024-01-25T04:01:48;99381.81;;;8.24
76901;BMP280;65859;43.020;25.096;2024-01-25T04:04:33;99380.84;;;8.64
76901;BMP280;65859;43.020;25.096;2024-01-25T04:07:18;99384.44;;;8.69
76901;BMP280;65859;43.020;25.096;2024-01-25T04:10:03;99384.97;;;8.79
76901;BMP280;65859;43.020;25.096;2024-01-25T04:12:48;99391.53;;;8.59
76901;BMP280;65859;43.020;25.096;2024-01-25T04:15:32;99395.63;;;8.66
76901;BMP280;65859;43.020;25.096;2024-01-25T04:18:17;99401.81;;;8.61
76901;BMP280;65859;43.020;25.096;2024-01-25T04:21:03;99401.06;;;8.69
76901;BMP280;65859;43.020;25.096;2024-01-25T04:23:48;99404.97;;;8.72
76901;BMP280;65859;43.020;25.096;2024-01-25T04:26:33;99407.19;;;8.78
76901;BMP280;65859;43.020;25.096;2024-01-25T04:29:17;99413.59;;;8.55
76901;BMP280;65859;43.020;25.096;2024-01-25T04:32:02;99419.06;;;8.58
76901;BMP280;65859;43.020;25.096;2024-01-25T04:34:47;99409.66;;;8.75
76901;BMP280;65859;43.020;25.096;2024-01-25T04:37:32;99410.09;;;8.99
76901;BMP280;65859;43.020;25.096;2024-01-25T04:40:18;99426.78;;;8.77
76901;BMP280;65859;43.020;25.096;2024-01-25T04:43:04;99429.91;;;8.57
76901;BMP280;65859;43.020;25.096;2024-01-25T04:45:48;99426.59;;;8.65
76901;BMP280;65859;43.020;25.096;2024-01-25T04:48:33;99431.94;;;9.05
76901;BMP280;65859;43.020;25.096;2024-01-25T04:51:19;99436.47;;;8.82
76901;BMP280;65859;43.020;25.096;2024-01-25T04:54:05;99446.78;;;8.83
76901;BMP280;65859;43.020;25.096;2024-01-25T04:56:51;99442.06;;;9.11
76901;BMP280;65859;43.020;25.096;2024-01-25T04:59:36;99427.88;;;9.07
76901;BMP280;65859;43.020;25.096;2024-01-25T05:02:21;99440.59;;;9.28
76901;BMP280;65859;43.020;25.096;2024-01-25T05:05:05;99447.09;;;9.22
76901;BMP280;65859;43.020;25.096;2024-01-25T05:07:50;99454.78;;;9.01
76901;BMP280;65859;43.020;25.096;2024-01-25T05:10:35;99427.78;;;9.12
76901;BMP280;65859;43.020;25.096;2024-01-25T05:13:19;99468.81;;;9.32
76901;BMP280;65859;43.020;25.096;2024-01-25T05:16:04;99456.50;;;9.36
76901;BMP280;65859;43.020;25.096;2024-01-25T05:18:49;99463.06;;;9.08
76901;BMP280;65859;43.020;25.096;2024-01-25T05:21:36;99461.13;;;8.91
76901;BMP280;65859;43.020;25.096;2024-01-25T05:24:21;99469.34;;;8.89
76901;BMP280;65859;43.020;25.096;2024-01-25T05:27:06;99481.25;;;9.01
76901;BMP280;65859;43.020;25.096;2024-01-25T05:29:50;99476.16;;;8.59
76901;BMP280;65859;43.020;25.096;2024-01-25T05:32:35;99471.84;;;8.86
76901;BMP280;65859;43.020;25.096;2024-01-25T05:35:20;99484.94;;;8.91
76901;BMP280;65859;43.020;25.096;2024-01-25T05:38:05;99487.41;;;8.87
76901;BMP280;65859;43.020;25.096;2024-01-25T05:40:50;99484.50;;;8.98
76901;BMP280;65859;43.020;25.096;2024-01-25T05:43:35;99486.72;;;9.04
76901;BMP280;65859;43.020;25.096;2024-01-25T05:46:21;99483.47;;;9.07
76901;BMP280;65859;43.020;25.096;2024-01-25T05:49:05;99481.03;;;8.66
76901;BMP280;65859;43.020;25.096;2024-01-25T05:51:51;99493.00;;;8.86
76901;BMP280;65859;43.020;25.096;2024-01-25T05:54:37;99495.94;;;8.84
76901;BMP280;65859;43.020;25.096;2024-01-25T05:57:21;99491.91;;;8.87
76901;BMP280;65859;43.020;25.096;2024-01-25T06:00:06;99490.81;;;9.10
76901;BMP280;65859;43.020;25.096;2024-01-25T06:02:52;99493.94;;;8.90
76901;BMP280;65859;43.020;25.096;2024-01-25T06:05:37;99493.25;;;9.07
76901;BMP280;65859;43.020;25.096;2024-01-25T06:08:22;99498.06;;;9.27
76901;BMP280;65859;43.020;25.096;2024-01-25T06:11:07;99497.19;;;9.40
76901;BMP280;65859;43.020;25.096;2024-01-25T06:13:54;99507.41;;;9.25
76901;BMP280;65859;43.020;25.096;2024-01-25T06:16:39;99503.13;;;9.46
76901;BMP280;65859;43.020;25.096;2024-01-25T06:19:23;99498.59;;;9.47
76901;BMP280;65859;43.020;25.096;2024-01-25T06:22:10;99500.91;;;9.31
76901;BMP280;65859;43.020;25.096;2024-01-25T06:24:56;99485.94;;;9.35
76901;BMP280;65859;43.020;25.096;2024-01-25T06:27:41;99502.78;;;9.79
76901;BMP280;65859;43.020;25.096;2024-01-25T06:30:26;99504.06;;;10.07
76901;BMP280;65859;43.020;25.096;2024-01-25T06:33:11;99502.06;;;10.21
76901;BMP280;65859;43.020;25.096;2024-01-25T06:35:57;99502.22;;;10.34
76901;BMP280;65859;43.020;25.096;2024-01-25T06:38:42;99495.03;;;10.34
76901;BMP280;65859;43.020;25.096;2024-01-25T06:41:27;99500.81;;;10.45
76901;BMP280;65859;43.020;25.096;2024-01-25T06:44:11;99493.63;;;10.37
76901;BMP280;65859;43.020;25.096;2024-01-25T06:46:56;99495.03;;;10.17
76901;BMP280;65859;43.020;25.096;2024-01-25T06:49:41;99509.97;;;9.95
76901;BMP280;65859;43.020;25.096;2024-01-25T06:52:27;99497.38;;;10.01
76901;BMP280;65859;43.020;25.096;2024-01-25T06:55:13;99495.66;;;10.05
76901;BMP280;65859;43.020;25.096;2024-01-25T06:57:58;99491.47;;;10.39
76901;BMP280;65859;43.020;25.096;2024-01-25T07:00:42;99490.19;;;10.62
76901;BMP280;65859;43.020;25.096;2024-01-25T07:03:29;99482.56;;;10.35
76901;BMP280;65859;43.020;25.096;2024-01-25T07:06:14;99487.72;;;10.40
76901;BMP280;65859;43.020;25.096;2024-01-25T07:08:59;99476.16;;;10.27
76901;BMP280;65859;43.020;25.096;2024-01-25T07:11:44;99471.03;;;10.13
76901;BMP280;65859;43.020;25.096;2024-01-25T07:14:29;99461.22;;;10.22
76901;BMP280;65859;43.020;25.096;2024-01-25T07:17:14;99467.28;;;10.32
76901;BMP280;65859;43.020;25.096;2024-01-25T07:19:58;99483.28;;;10.96
76901;BMP280;65859;43.020;25.096;2024-01-25T07:22:45;99477.38;;;11.58
76901;BMP280;65859;43.020;25.096;2024-01-25T07:25:30;99485.88;;;11.72
76901;BMP280;65859;43.020;25.096;2024-01-25T07:28:15;99482.16;;;11.64
76901;BMP280;65859;43.020;25.096;2024-01-25T07:31:02;99487.47;;;11.44
76901;BMP280;65859;43.020;25.096;2024-01-25T07:33:47;99501.66;;;11.77
76901;BMP280;65859;43.020;25.096;2024-01-25T07:36:32;99494.34;;;11.95
76901;BMP280;65859;43.020;25.096;2024-01-25T07:39:16;99492.19;;;12.30
76901;BMP280;65859;43.020;25.096;2024-01-25T07:42:01;99507.13;;;12.56
76901;BMP280;65859;43.020;25.096;2024-01-25T07:44:45;99502.16;;;12.54
76901;BMP280;65859;43.020;25.096;2024-01-25T07:47:30;99523.44;;;12.54
76901;BMP280;65859;43.020;25.096;2024-01-25T07:50:15;99543.28;;;12.57
76901;BMP280;65859;43.020;25.096;2024-01-25T07:53:01;99538.34;;;13.00
76901;BMP280;65859;43.020;25.096;2024-01-25T07:55:47;99545.75;;;12.95
76901;BMP280;65859;43.020;25.096;2024-01-25T07:58:32;99542.59;;;13.38
76901;BMP280;65859;43.020;25.096;2024-01-25T08:01:20;99549.25;;;13.69
76901;BMP280;65859;43.020;25.096;2024-01-25T08:04:05;99548.81;;;13.54
76901;BMP280;65859;43.020;25.096;2024-01-25T08:06:51;99552.94;;;13.64
76901;BMP280;65859;43.020;25.096;2024-01-25T08:09:36;99554.34;;;13.62
76901;BMP280;65859;43.020;25.096;2024-01-25T08:12:21;99545.03;;;13.31
76901;BMP280;65859;43.020;25.096;2024-01-25T08:15:06;99556.94;;;12.88
76901;BMP280;65859;43.020;25.096;2024-01-25T08:17:51;99555.69;;;12.73
76901;BMP280;65859;43.020;25.096;2024-01-25T08:20:37;99558.13;;;13.36
76901;BMP280;65859;43.020;25.096;2024-01-25T08:23:24;99567.13;;;13.31
76901;BMP280;65859;43.020;25.096;2024-01-25T08:26:08;99550.19;;;12.91
76901;BMP280;65859;43.020;25.096;2024-01-25T08:28:57;99559.44;;;13.18
76901;BMP280;65859;43.020;25.096;2024-01-25T08:31:42;99554.69;;;12.78
76901;BMP280;65859;43.020;25.096;2024-01-25T08:34:26;99560.97;;;12.61
76901;BMP280;65859;43.020;25.096;2024-01-25T08:37:11;99569.38;;;12.63
76901;BMP280;65859;43.020;25.096;2024-01-25T08:39:56;99565.31;;;12.99
76901;BMP280;65859;43.020;25.096;2024-01-25T08:42:40;99554.78;;;12.48
76901;BMP280;65859;43.020;25.096;2024-01-25T08:45:25;99526.69;;;12.39
76901;BMP280;65859;43.020;25.096;2024-01-25T08:48:10;99535.91;;;12.00
76901;BMP280;65859;43.020;25.096;2024-01-25T08:50:55;99540.91;;;11.80
76901;BMP280;65859;43.020;25.096;2024-01-25T08:53:41;99549.56;;;11.60
76901;BMP280;65859;43.020;25.096;2024-01-25T08:56:26;99545.53;;;11.54
76901;BMP280;65859;43.020;25.096;2024-01-25T08:59:11;99553.28;;;11.68
76901;BMP280;65859;43.020;25.096;2024-01-25T09:01:57;99546.75;;;11.65
76901;BMP280;65859;43.020;25.096;2024-01-25T09:04:42;99537.56;;;11.54
76901;BMP280;65859;43.020;25.096;2024-01-25T09:07:27;99539.31;;;11.50
76901;BMP280;65859;43.020;25.096;2024-01-25T09:10:13;99530.78;;;11.65
76901;BMP280;65859;43.020;25.096;2024-01-25T09:12:59;99544.63;;;11.58
76901;BMP280;65859;43.020;25.096;2024-01-25T09:15:44;99534.91;;;11.54
76901;BMP280;65859;43.020;25.096;2024-01-25T09:18:32;99539.47;;;11.45
76901;BMP280;65859;43.020;25.096;2024-01-25T09:21:17;99559.38;;;11.68
76901;BMP280;65859;43.020;25.096;2024-01-25T09:24:03;99554.34;;;11.75
76901;BMP280;65859;43.020;25.096;2024-01-25T09:26:48;99567.75;;;11.87
76901;BMP280;65859;43.020;25.096;2024-01-25T09:29:34;99534.84;;;11.71
76901;BMP280;65859;43.020;25.096;2024-01-25T09:32:18;99541.19;;;12.50
76901;BMP280;65859;43.020;25.096;2024-01-25T09:35:05;99555.66;;;11.99
76901;BMP280;65859;43.020;25.096;2024-01-25T09:37:50;99562.31;;;12.05
76901;BMP280;65859;43.020;25.096;2024-01-25T09:40:36;99560.09;;;11.86
76901;BMP280;65859;43.020;25.096;2024-01-25T09:43:22;99554.44;;;12.17
76901;BMP280;65859;43.020;25.096;2024-01-25T09:46:07;99568.03;;;12.15
76901;BMP280;65859;43.020;25.096;2024-01-25T09:48:57;99560.97;;;12.40
76901;BMP280;65859;43.020;25.096;2024-01-25T09:51:43;99570.06;;;12.39
76901;BMP280;65859;43.020;25.096;2024-01-25T09:54:35;99570.66;;;13.11
76901;BMP280;65859;43.020;25.096;2024-01-25T09:57:24;99538.97;;;12.85
76901;BMP280;65859;43.020;25.096;2024-01-25T10:00:09;99564.38;;;13.40
76901;BMP280;65859;43.020;25.096;2024-01-25T10:02:56;99552.88;;;13.15
76901;BMP280;65859;43.020;25.096;2024-01-25T10:05:41;99546.47;;;13.90
76901;BMP280;65859;43.020;25.096;2024-01-25T10:08:26;99534.50;;;12.89
76901;BMP280;65859;43.020;25.096;2024-01-25T10:11:11;99542.25;;;13.64
76901;BMP280;65859;43.020;25.096;2024-01-25T10:13:56;99541.97;;;12.84
76901;BMP280;65859;43.020;25.096;2024-01-25T10:16:44;99541.09;;;14.73
76901;BMP280;65859;43.020;25.096;2024-01-25T10:19:30;99543.72;;;15.68
76901;BMP280;65859;43.020;25.096;2024-01-25T10:22:16;99531.72;;;16.16
76901;BMP280;65859;43.020;25.096;2024-01-25T10:25:02;99512.34;;;14.98
76901;BMP280;65859;43.020;25.096;2024-01-25T10:27:47;99524.41;;;16.78
76901;BMP280;65859;43.020;25.096;2024-01-25T10:30:34;99508.81;;;15.10
76901;BMP280;65859;43.020;25.096;2024-01-25T10:33:20;99490.59;;;14.09
76901;BMP280;65859;43.020;25.096;2024-01-25T10:36:05;99491.38;;;13.45
76901;BMP280;65859;43.020;25.096;2024-01-25T10:38:54;99472.50;;;13.50
76901;BMP280;65859;43.020;25.096;2024-01-25T10:41:39;99465.31;;;13.91
76901;BMP280;65859;43.020;25.096;2024-01-25T10:44:25;99459.25;;;13.41
76901;BMP280;65859;43.020;25.096;2024-01-25T10:47:11;99461.00;;;13.74
76901;BMP280;65859;43.020;25.096;2024-01-25T10:49:57;99456.56;;;14.06
76901;BMP280;65859;43.020;25.096;2024-01-25T10:52:43;99442.09;;;13.02
76901;BMP280;65859;43.020;25.096;2024-01-25T10:55:30;99442.53;;;12.80
76901;BMP280;65859;43.020;25.096;2024-01-25T10:58:16;99436.50;;;12.58
76901;BMP280;65859;43.020;25.096;2024-01-25T11:01:01;99428.63;;;13.35
76901;BMP280;65859;43.020;25.096;2024-01-25T11:03:48;99443.69;;;14.24
76901;BMP280;65859;43.020;25.096;2024-01-25T11:06:34;99437.53;;;13.39
76901;BMP280;65859;43.020;25.096;2024-01-25T11:09:20;99425.03;;;13.68
76901;BMP280;65859;43.020;25.096;2024-01-25T11:12:12;99434.41;;;14.33
76901;BMP280;65859;43.020;25.096;2024-01-25T11:15:07;99437.09;;;14.81
76901;BMP280;65859;43.020;25.096;2024-01-25T11:17:53;99428.06;;;15.20
76901;BMP280;65859;43.020;25.096;2024-01-25T11:20:39;99417.03;;;14.71
76901;BMP280;65859;43.020;25.096;2024-01-25T11:23:32;99423.53;;;13.30
76901;BMP280;65859;43.020;25.096;2024-01-25T11:26:18;99408.00;;;13.08
76901;BMP280;65859;43.020;25.096;2024-01-25T11:29:04;99408.78;;;12.26
76901;BMP280;65859;43.020;25.096;2024-01-25T11:31:50;99400.44;;;12.15
76901;BMP280;65859;43.020;25.096;2024-01-25T11:34:35;99397.56;;;11.87
76901;BMP280;65859;43.020;25.096;2024-01-25T11:37:23;99405.72;;;11.82
76901;BMP280;65859;43.020;25.096;2024-01-25T11:40:08;99405.63;;;11.79
76901;BMP280;65859;43.020;25.096;2024-01-25T11:42:54;99404.84;;;11.78
76901;BMP280;65859;43.020;25.096;2024-01-25T11:45:39;99400.72;;;11.60
76901;BMP280;65859;43.020;25.096;2024-01-25T11:48:27;99402.53;;;11.68
76901;BMP280;65859;43.020;25.096;2024-01-25T11:51:13;99410.66;;;11.93
76901;BMP280;65859;43.020;25.096;2024-01-25T11:53:59;99398.91;;;12.14
76901;BMP280;65859;43.020;25.096;2024-01-25T11:56:46;99400.47;;;12.85
76901;BMP280;65859;43.020;25.096;2024-01-25T11:59:31;99410.47;;;13.00
76901;BMP280;65859;43.020;25.096;2024-01-25T12:02:16;99408.44;;;14.18
76901;BMP280;65859;43.020;25.096;2024-01-25T12:05:03;99397.75;;;13.74
76901;BMP280;65859;43.020;25.096;2024-01-25T12:07:48;99395.75;;;12.45
76901;BMP280;65859;43.020;25.096;2024-01-25T12:10:33;99393.81;;;12.22
76901;BMP280;65859;43.020;25.096;2024-01-25T12:13:19;99405.53;;;11.87
76901;BMP280;65859;43.020;25.096;2024-01-25T12:16:06;99396.13;;;11.69
76901;BMP280;65859;43.020;25.096;2024-01-25T12:18:52;99395.06;;;11.70
76901;BMP280;65859;43.020;25.096;2024-01-25T12:21:38;99379.72;;;11.46
76901;BMP280;65859;43.020;25.096;2024-01-25T12:24:24;99384.97;;;11.34
76901;BMP280;65859;43.020;25.096;2024-01-25T12:27:10;99389.03;;;11.31
76901;BMP280;65859;43.020;25.096;2024-01-25T12:29:55;99377.13;;;11.38
76901;BMP280;65859;43.020;25.096;2024-01-25T12:32:41;99384.16;;;11.42
76901;BMP280;65859;43.020;25.096;2024-01-25T12:35:25;99375.84;;;11.64
76901;BMP280;65859;43.020;25.096;2024-01-25T12:38:10;99383.00;;;11.52
76901;BMP280;65859;43.020;25.096;2024-01-25T12:40:55;99366.41;;;11.55
76901;BMP280;65859;43.020;25.096;2024-01-25T12:43:40;99370.59;;;11.56
76901;BMP280;65859;43.020;25.096;2024-01-25T12:46:25;99375.56;;;11.66
76901;BMP280;65859;43.020;25.096;2024-01-25T12:49:10;99381.94;;;11.65
76901;BMP280;65859;43.020;25.096;2024-01-25T12:51:55;99372.94;;;11.57
76901;BMP280;65859;43.020;25.096;2024-01-25T12:54:41;99380.72;;;11.62
76901;BMP280;65859;43.020;25.096;2024-01-25T12:57:27;99395.69;;;11.67
76901;BMP280;65859;43.020;25.096;2024-01-25T13:00:12;99399.22;;;11.59
76901;BMP280;65859;43.020;25.096;2024-01-25T13:02:57;99382.22;;;11.51
76901;BMP280;65859;43.020;25.096;2024-01-25T13:05:41;99397.13;;;11.44
76901;BMP280;65859;43.020;25.096;2024-01-25T13:08:28;99405.41;;;11.42
76901;BMP280;65859;43.020;25.096;2024-01-25T13:11:13;99404.75;;;11.45
76901;BMP280;65859;43.020;25.096;2024-01-25T13:13:57;99400.59;;;11.35
76901;BMP280;65859;43.020;25.096;2024-01-25T13:16:42;99408.56;;;11.35
76901;BMP280;65859;43.020;25.096;2024-01-25T13:19:27;99408.38;;;11.41
76901;BMP280;65859;43.020;25.096;2024-01-25T13:22:12;99401.69;;;11.34
76901;BMP280;65859;43.020;25.096;2024-01-25T13:24:57;99404.88;;;11.49
76901;BMP280;65859;43.020;25.096;2024-01-25T13:27:43;99411.88;;;11.53
76901;BMP280;65859;43.020;25.096;2024-01-25T13:30:27;99416.69;;;11.60
76901;BMP280;65859;43.020;25.096;2024-01-25T13:33:12;99415.88;;;11.39
76901;BMP280;65859;43.020;25.096;2024-01-25T13:35:57;99406.69;;;11.36
76901;BMP280;65859;43.020;25.096;2024-01-25T13:38:42;99407.53;;;11.49
76901;BMP280;65859;43.020;25.096;2024-01-25T13:41:27;99408.50;;;11.44
76901;BMP280;65859;43.020;25.096;2024-01-25T13:44:13;99402.22;;;11.49
76901;BMP280;65859;43.020;25.096;2024-01-25T13:46:58;99405.72;;;11.41
76901;BMP280;65859;43.020;25.096;2024-01-25T13:49:44;99404.75;;;11.45
76901;BMP280;65859;43.020;25.096;2024-01-25T13:52:28;99402.53;;;11.26
76901;BMP280;65859;43.020;25.096;2024-01-25T13:55:13;99398.97;;;11.14
76901;BMP280;65859;43.020;25.096;2024-01-25T13:57:59;99401.97;;;11.12
76901;BMP280;65859;43.020;25.096;2024-01-25T14:00:44;99388.19;;;11.19
76901;BMP280;65859;43.020;25.096;2024-01-25T14:03:31;99398.06;;;11.09
76901;BMP280;65859;43.020;25.096;2024-01-25T14:06:16;99400.16;;;10.95
76901;BMP280;65859;43.020;25.096;2024-01-25T14:09:01;99390.06;;;10.89
76901;BMP280;65859;43.020;25.096;2024-01-25T14:11:45;99396.00;;;10.86
76901;BMP280;65859;43.020;25.096;2024-01-25T14:14:30;99389.91;;;10.76
76901;BMP280;65859;43.020;25.096;2024-01-25T14:17:15;99377.41;;;10.86
76901;BMP280;65859;43.020;25.096;2024-01-25T14:20:00;99374.59;;;10.82
76901;BMP280;65859;43.020;25.096;2024-01-25T14:22:45;99386.16;;;10.86
76901;BMP280;65859;43.020;25.096;2024-01-25T14:25:30;99378.06;;;11.12
76901;BMP280;65859;43.020;25.096;2024-01-25T14:28:16;99378.41;;;10.72
76901;BMP280;65859;43.020;25.096;2024-01-25T14:31:01;99363.91;;;10.61
76901;BMP280;65859;43.020;25.096;2024-01-25T14:33:46;99366.06;;;10.68
76901;BMP280;65859;43.020;25.096;2024-01-25T14:36:31;99383.88;;;10.67
76901;BMP280;65859;43.020;25.096;2024-01-25T14:39:16;99374.84;;;10.60
76901;BMP280;65859;43.020;25.096;2024-01-25T14:42:01;99375.81;;;10.46
76901;BMP280;65859;43.020;25.096;2024-01-25T14:44:45;99382.81;;;10.51
76901;BMP280;65859;43.020;25.096;2024-01-25T14:47:30;99379.09;;;10.43
76901;BMP280;65859;43.020;25.096;2024-01-25T14:50:15;99385.97;;;10.44
76901;BMP280;65859;43.020;25.096;2024-01-25T14:53:00;99391.00;;;10.37
76901;BMP280;65859;43.020;25.096;2024-01-25T14:55:45;99385.81;;;10.41
76901;BMP280;65859;43.020;25.096;2024-01-25T14:58:31;99389.88;;;10.38
76901;BMP280;65859;43.020;25.096;2024-01-25T15:01:17;99388.34;;;10.37
76901;BMP280;65859;43.020;25.096;2024-01-25T15:04:03;99391.28;;;10.36
76901;BMP280;65859;43.020;25.096;2024-01-25T15:06:48;99390.69;;;10.21
76901;BMP280;65859;43.020;25.096;2024-01-25T15:09:33;99394.25;;;10.34
76901;BMP280;65859;43.020;25.096;2024-01-25T15:12:18;99393.34;;;10.21
76901;BMP280;65859;43.020;25.096;2024-01-25T15:15:04;99398.47;;;10.18
76901;BMP280;65859;43.020;25.096;2024-01-25T15:17:50;99392.09;;;10.10
76901;BMP280;65859;43.020;25.096;2024-01-25T15:20:35;99399.75;;;10.12
76901;BMP280;65859;43.020;25.096;2024-01-25T15:23:20;99399.44;;;10.13
76901;BMP280;65859;43.020;25.096;2024-01-25T15:26:05;99410.03;;;10.31
76901;BMP280;65859;43.020;25.096;2024-01-25T15:28:52;99408.63;;;10.16
76901;BMP280;65859;43.020;25.096;2024-01-25T15:31:37;99412.22;;;10.20
76901;BMP280;65859;43.020;25.096;2024-01-25T15:34:23;99403.47;;;10.11
76901;BMP280;65859;43.020;25.096;2024-01-25T15:37:07;99423.75;;;10.15
76901;BMP280;65859;43.020;25.096;2024-01-25T15:39:52;99405.84;;;10.12
76901;BMP280;65859;43.020;25.096;2024-01-25T15:42:38;99415.97;;;10.02
76901;BMP280;65859;43.020;25.096;2024-01-25T15:45:23;99415.03;;;10.06